sensor_id;sensor_type;location;lat;lon;timestamp;pressure;altitude;pressure_sealevel;temperature;humidity
70730;BME280;58315;53.336;55.932;2023-04-07T00:01:14;99673.53;;;11.84;42.84
70730;BME280;58315;53.336;55.932;2023-04-07T00:03:40;99669.91;;;11.75;43.00
70730;BME280;58315;53.336;55.932;2023-04-07T00:06:06;99675.22;;;11.66;43.19
70730;BME280;58315;53.336;55.932;2023-04-07T00:08:32;99676.34;;;11.63;43.25
70730;BME280;58315;53.336;55.932;2023-04-07T00:10:58;99680.41;;;11.57;43.73
70730;BME280;58315;53.336;55.932;2023-04-07T00:13:24;99681.38;;;11.56;43.26
70730;BME280;58315;53.336;55.932;2023-04-07T00:15:51;99675.50;;;11.63;43.34
70730;BME280;58315;53.336;55.932;2023-04-07T00:18:17;99679.56;;;11.57;43.64
70730;BME280;58315;53.336;55.932;2023-04-07T00:20:43;99688.25;;;11.30;43.85
70730;BME280;58315;53.336;55.932;2023-04-07T00:23:09;99693.38;;;11.02;44.73
70730;BME280;58315;53.336;55.932;2023-04-07T00:25:35;99689.47;;;10.87;44.77
70730;BME280;58315;53.336;55.932;2023-04-07T00:28:01;99696.84;;;10.83;44.77
70730;BME280;58315;53.336;55.932;2023-04-07T00:30:27;99700.59;;;10.81;44.71
70730;BME280;58315;53.336;55.932;2023-04-07T00:32:53;99705.06;;;10.80;44.86
70730;BME280;58315;53.336;55.932;2023-04-07T00:35:19;99700.44;;;10.73;44.95
70730;BME280;58315;53.336;55.932;2023-04-07T00:37:48;99703.63;;;10.67;45.30
70730;BME280;58315;53.336;55.932;2023-04-07T00:40:14;99704.16;;;10.51;45.83
70730;BME280;58315;53.336;55.932;2023-04-07T00:42:41;99704.13;;;10.41;46.03
70730;BME280;58315;53.336;55.932;2023-04-07T00:45:08;99715.56;;;10.51;45.64
70730;BME280;58315;53.336;55.932;2023-04-07T00:47:35;99709.66;;;10.38;45.85
70730;BME280;58315;53.336;55.932;2023-04-07T00:50:03;99706.22;;;10.47;46.22
70730;BME280;58315;53.336;55.932;2023-04-07T00:52:31;99715.59;;;10.61;45.92
70730;BME280;58315;53.336;55.932;2023-04-07T00:54:58;99718.81;;;10.65;45.95
70730;BME280;58315;53.336;55.932;2023-04-07T00:57:25;99711.56;;;10.67;45.53
70730;BME280;58315;53.336;55.932;2023-04-07T00:59:51;99714.78;;;10.80;45.27
70730;BME280;58315;53.336;55.932;2023-04-07T01:02:31;99711.19;;;11.00;44.73
70730;BME280;58315;53.336;55.932;2023-04-07T01:05:14;99714.81;;;11.38;44.33
70730;BME280;58315;53.336;55.932;2023-04-07T01:08:05;99727.75;;;11.61;43.57
70730;BME280;58315;53.336;55.932;2023-04-07T01:10:45;99725.94;;;11.71;43.34
70730;BME280;58315;53.336;55.932;2023-04-07T01:13:30;99739.72;;;11.74;43.26
70730;BME280;58315;53.336;55.932;2023-04-07T01:16:31;99734.81;;;11.79;43.43
70730;BME280;58315;53.336;55.932;2023-04-07T01:19:05;99748.47;;;11.85;43.17
70730;BME280;58315;53.336;55.932;2023-04-07T01:21:34;99748.34;;;11.76;43.13
70730;BME280;58315;53.336;55.932;2023-04-07T01:26:48;99750.44;;;11.92;43.02
70730;BME280;58315;53.336;55.932;2023-04-07T01:31:54;99752.78;;;11.95;43.26
70730;BME280;58315;53.336;55.932;2023-04-07T01:34:23;99759.06;;;11.75;43.43
70730;BME280;58315;53.336;55.932;2023-04-07T01:36:51;99765.75;;;11.69;43.87
70730;BME280;58315;53.336;55.932;2023-04-07T01:39:19;99770.50;;;11.66;43.75
70730;BME280;58315;53.336;55.932;2023-04-07T01:41:47;99777.19;;;11.70;43.71
70730;BME280;58315;53.336;55.932;2023-04-07T01:44:14;99777.31;;;11.58;43.96
70730;BME280;58315;53.336;55.932;2023-04-07T01:46:40;99782.78;;;11.67;43.75
70730;BME280;58315;53.336;55.932;2023-04-07T01:49:06;99793.75;;;11.72;43.70
70730;BME280;58315;53.336;55.932;2023-04-07T01:51:33;99786.53;;;11.74;43.98
70730;BME280;58315;53.336;55.932;2023-04-07T01:54:00;99791.94;;;11.72;43.81
70730;BME280;58315;53.336;55.932;2023-04-07T01:56:27;99795.31;;;11.84;43.80
70730;BME280;58315;53.336;55.932;2023-04-07T01:58:55;99802.81;;;11.98;43.61
70730;BME280;58315;53.336;55.932;2023-04-07T02:01:23;99809.81;;;11.90;43.36
70730;BME280;58315;53.336;55.932;2023-04-07T02:03:55;99808.69;;;11.92;43.65
70730;BME280;58315;53.336;55.932;2023-04-07T02:06:22;99812.84;;;12.04;43.34
70730;BME280;58315;53.336;55.932;2023-04-07T02:08:54;99808.38;;;11.95;43.67
70730;BME280;58315;53.336;55.932;2023-04-07T02:11:23;99820.09;;;11.83;43.89
70730;BME280;58315;53.336;55.932;2023-04-07T02:13:55;99818.31;;;11.93;43.57
70730;BME280;58315;53.336;55.932;2023-04-07T02:16:42;99822.47;;;12.05;43.66
70730;BME280;58315;53.336;55.932;2023-04-07T02:19:09;99828.31;;;12.09;43.44
70730;BME280;58315;53.336;55.932;2023-04-07T02:21:36;99842.53;;;12.08;43.57
70730;BME280;58315;53.336;55.932;2023-04-07T02:24:05;99847.13;;;12.06;43.80
70730;BME280;58315;53.336;55.932;2023-04-07T02:26:33;99840.59;;;12.00;44.03
70730;BME280;58315;53.336;55.932;2023-04-07T02:29:01;99844.66;;;11.85;44.92
70730;BME280;58315;53.336;55.932;2023-04-07T02:31:27;99851.31;;;11.79;44.75
70730;BME280;58315;53.336;55.932;2023-04-07T02:33:53;99860.53;;;11.85;45.22
70730;BME280;58315;53.336;55.932;2023-04-07T02:36:19;99873.63;;;11.87;45.01
70730;BME280;58315;53.336;55.932;2023-04-07T02:38:45;99868.06;;;11.90;44.84
70730;BME280;58315;53.336;55.932;2023-04-07T02:41:11;99870.00;;;11.78;45.06
70730;BME280;58315;53.336;55.932;2023-04-07T02:43:37;99879.19;;;11.83;45.61
70730;BME280;58315;53.336;55.932;2023-04-07T02:46:03;99875.84;;;11.81;45.12
70730;BME280;58315;53.336;55.932;2023-04-07T02:48:29;99876.25;;;11.67;45.71
70730;BME280;58315;53.336;55.932;2023-04-07T02:50:55;99878.91;;;11.67;45.31
70730;BME280;58315;53.336;55.932;2023-04-07T02:53:21;99894.72;;;11.48;45.77
70730;BME280;58315;53.336;55.932;2023-04-07T02:55:47;99902.09;;;11.44;45.81
70730;BME280;58315;53.336;55.932;2023-04-07T02:58:13;99918.38;;;11.30;45.57
70730;BME280;58315;53.336;55.932;2023-04-07T03:00:42;99912.34;;;11.18;46.04
70730;BME280;58315;53.336;55.932;2023-04-07T03:03:19;99925.50;;;10.99;45.93
70730;BME280;58315;53.336;55.932;2023-04-07T03:06:02;99931.03;;;10.86;45.40
70730;BME280;58315;53.336;55.932;2023-04-07T03:08:29;99935.81;;;11.02;45.73
70730;BME280;58315;53.336;55.932;2023-04-07T03:10:55;99934.88;;;11.13;45.50
70730;BME280;58315;53.336;55.932;2023-04-07T03:13:26;99939.47;;;11.10;45.26
70730;BME280;58315;53.336;55.932;2023-04-07T03:15:54;99956.47;;;11.18;46.00
70730;BME280;58315;53.336;55.932;2023-04-07T03:18:21;99951.78;;;10.91;46.07
70730;BME280;58315;53.336;55.932;2023-04-07T03:20:49;99957.97;;;11.10;45.49
70730;BME280;58315;53.336;55.932;2023-04-07T03:23:17;99968.69;;;11.09;45.24
70730;BME280;58315;53.336;55.932;2023-04-07T03:25:44;99968.81;;;11.07;45.49
70730;BME280;58315;53.336;55.932;2023-04-07T03:28:11;99983.59;;;11.10;45.44
70730;BME280;58315;53.336;55.932;2023-04-07T03:30:38;99992.03;;;11.04;45.60
70730;BME280;58315;53.336;55.932;2023-04-07T03:33:08;100000.84;;;11.04;45.42
70730;BME280;58315;53.336;55.932;2023-04-07T03:35:34;99998.44;;;11.01;46.21
70730;BME280;58315;53.336;55.932;2023-04-07T03:38:00;100005.56;;;11.10;45.94
70730;BME280;58315;53.336;55.932;2023-04-07T03:40:26;100010.19;;;11.08;45.94
70730;BME280;58315;53.336;55.932;2023-04-07T03:42:52;100014.50;;;10.89;46.11
70730;BME280;58315;53.336;55.932;2023-04-07T03:45:18;100026.50;;;10.72;46.04
70730;BME280;58315;53.336;55.932;2023-04-07T03:47:49;100038.09;;;10.59;46.25
70730;BME280;58315;53.336;55.932;2023-04-07T03:50:16;100033.63;;;10.60;46.59
70730;BME280;58315;53.336;55.932;2023-04-07T03:53:06;100035.94;;;10.32;47.45
70730;BME280;58315;53.336;55.932;2023-04-07T03:55:33;100047.38;;;10.10;48.01
70730;BME280;58315;53.336;55.932;2023-04-07T03:58:08;100066.97;;;9.97;48.29
70730;BME280;58315;53.336;55.932;2023-04-07T04:00:36;100061.84;;;9.84;48.81
70730;BME280;58315;53.336;55.932;2023-04-07T04:03:08;100061.59;;;9.76;49.16
70730;BME280;58315;53.336;55.932;2023-04-07T04:05:41;100063.28;;;9.77;49.41
70730;BME280;58315;53.336;55.932;2023-04-07T04:08:12;100071.31;;;9.64;49.71
70730;BME280;58315;53.336;55.932;2023-04-07T04:10:39;100075.53;;;9.55;49.88
70730;BME280;58315;53.336;55.932;2023-04-07T04:13:05;100081.50;;;9.57;50.32
70730;BME280;58315;53.336;55.932;2023-04-07T04:15:33;100095.19;;;9.51;51.24
70730;BME280;58315;53.336;55.932;2023-04-07T04:18:00;100087.88;;;9.44;51.31
70730;BME280;58315;53.336;55.932;2023-04-07T04:20:26;100093.47;;;9.39;51.78
70730;BME280;58315;53.336;55.932;2023-04-07T04:22:52;100103.78;;;9.31;52.04
70730;BME280;58315;53.336;55.932;2023-04-07T04:25:19;100116.59;;;9.24;52.53
70730;BME280;58315;53.336;55.932;2023-04-07T04:27:49;100108.22;;;8.84;52.96
70730;BME280;58315;53.336;55.932;2023-04-07T04:30:19;100120.72;;;8.93;52.97
70730;BME280;58315;53.336;55.932;2023-04-07T04:32:50;100118.78;;;8.95;53.26
70730;BME280;58315;53.336;55.932;2023-04-07T04:35:23;100128.84;;;8.90;53.45
70730;BME280;58315;53.336;55.932;2023-04-07T04:38:03;100138.66;;;8.88;53.82
70730;BME280;58315;53.336;55.932;2023-04-07T04:40:29;100134.38;;;8.63;54.15
70730;BME280;58315;53.336;55.932;2023-04-07T04:42:56;100150.28;;;8.61;54.60
70730;BME280;58315;53.336;55.932;2023-04-07T04:45:23;100159.03;;;8.38;54.42
70730;BME280;58315;53.336;55.932;2023-04-07T04:47:50;100162.94;;;8.19;54.96
70730;BME280;58315;53.336;55.932;2023-04-07T04:50:16;100169.50;;;7.88;55.60
70730;BME280;58315;53.336;55.932;2023-04-07T04:52:44;100174.16;;;7.72;56.43
70730;BME280;58315;53.336;55.932;2023-04-07T04:55:18;100180.38;;;7.58;56.82
70730;BME280;58315;53.336;55.932;2023-04-07T04:57:45;100193.31;;;7.61;57.36
70730;BME280;58315;53.336;55.932;2023-04-07T05:00:15;100196.25;;;7.44;57.49
70730;BME280;58315;53.336;55.932;2023-04-07T05:02:43;100199.50;;;7.47;57.37
70730;BME280;58315;53.336;55.932;2023-04-07T05:05:11;100201.28;;;7.47;57.52
70730;BME280;58315;53.336;55.932;2023-04-07T05:07:38;100209.06;;;7.48;57.89
70730;BME280;58315;53.336;55.932;2023-04-07T05:10:07;100218.09;;;7.32;57.69
70730;BME280;58315;53.336;55.932;2023-04-07T05:12:36;100228.06;;;7.27;58.18
70730;BME280;58315;53.336;55.932;2023-04-07T05:15:02;100231.41;;;7.16;59.01
70730;BME280;58315;53.336;55.932;2023-04-07T05:17:29;100232.84;;;7.07;58.47
70730;BME280;58315;53.336;55.932;2023-04-07T05:19:58;100232.03;;;7.19;58.71
70730;BME280;58315;53.336;55.932;2023-04-07T05:22:33;100245.88;;;7.36;58.77
70730;BME280;58315;53.336;55.932;2023-04-07T05:25:01;100254.84;;;7.46;58.07
70730;BME280;58315;53.336;55.932;2023-04-07T05:27:27;100253.66;;;7.37;57.81
70730;BME280;58315;53.336;55.932;2023-04-07T05:29:57;100260.28;;;7.43;57.60
70730;BME280;58315;53.336;55.932;2023-04-07T05:32:30;100263.22;;;7.38;57.36
70730;BME280;58315;53.336;55.932;2023-04-07T05:35:01;100267.34;;;7.42;57.22
70730;BME280;58315;53.336;55.932;2023-04-07T05:37:31;100269.03;;;7.43;57.22
70730;BME280;58315;53.336;55.932;2023-04-07T05:40:00;100271.03;;;7.53;57.26
70730;BME280;58315;53.336;55.932;2023-04-07T05:42:27;100276.63;;;7.61;56.87
70730;BME280;58315;53.336;55.932;2023-04-07T05:44:55;100283.47;;;7.63;56.94
70730;BME280;58315;53.336;55.932;2023-04-07T05:47:23;100286.66;;;7.81;56.49
70730;BME280;58315;53.336;55.932;2023-04-07T05:49:50;100284.03;;;7.94;56.35
70730;BME280;58315;53.336;55.932;2023-04-07T05:52:16;100293.72;;;8.06;55.77
70730;BME280;58315;53.336;55.932;2023-04-07T05:54:47;100294.69;;;8.05;56.10
70730;BME280;58315;53.336;55.932;2023-04-07T05:57:14;100297.84;;;8.23;55.98
70730;BME280;58315;53.336;55.932;2023-04-07T05:59:44;100307.38;;;8.37;55.57
70730;BME280;58315;53.336;55.932;2023-04-07T06:02:10;100305.84;;;8.34;55.63
70730;BME280;58315;53.336;55.932;2023-04-07T06:04:37;100310.13;;;8.35;55.38
70730;BME280;58315;53.336;55.932;2023-04-07T06:07:05;100306.97;;;8.68;54.48
70730;BME280;58315;53.336;55.932;2023-04-07T06:09:31;100318.31;;;8.82;53.93
70730;BME280;58315;53.336;55.932;2023-04-07T06:11:57;100315.31;;;8.99;53.71
70730;BME280;58315;53.336;55.932;2023-04-07T06:14:24;100323.63;;;9.06;53.31
70730;BME280;58315;53.336;55.932;2023-04-07T06:16:50;100328.31;;;9.13;53.79
70730;BME280;58315;53.336;55.932;2023-04-07T06:19:16;100325.53;;;9.28;53.81
70730;BME280;58315;53.336;55.932;2023-04-07T06:21:42;100329.13;;;9.27;52.76
70730;BME280;58315;53.336;55.932;2023-04-07T06:24:08;100330.09;;;9.26;53.00
70730;BME280;58315;53.336;55.932;2023-04-07T06:26:34;100338.91;;;9.37;52.97
70730;BME280;58315;53.336;55.932;2023-04-07T06:29:00;100338.16;;;9.11;51.45
70730;BME280;58315;53.336;55.932;2023-04-07T06:31:27;100339.19;;;8.85;50.76
70730;BME280;58315;53.336;55.932;2023-04-07T06:33:53;100342.34;;;8.77;51.54
70730;BME280;58315;53.336;55.932;2023-04-07T06:36:19;100352.44;;;8.96;50.96
70730;BME280;58315;53.336;55.932;2023-04-07T06:38:46;100360.31;;;9.09;50.72
70730;BME280;58315;53.336;55.932;2023-04-07T06:41:12;100359.66;;;8.81;50.26
70730;BME280;58315;53.336;55.932;2023-04-07T06:43:48;100353.84;;;8.89;50.63
70730;BME280;58315;53.336;55.932;2023-04-07T06:46:16;100365.50;;;8.98;50.17
70730;BME280;58315;53.336;55.932;2023-04-07T06:48:42;100370.09;;;9.20;50.38
70730;BME280;58315;53.336;55.932;2023-04-07T06:51:08;100371.88;;;9.43;50.31
70730;BME280;58315;53.336;55.932;2023-04-07T06:53:34;100369.03;;;9.46;49.84
70730;BME280;58315;53.336;55.932;2023-04-07T06:56:08;100372.91;;;9.77;49.90
70730;BME280;58315;53.336;55.932;2023-04-07T06:58:37;100381.69;;;9.89;49.06
70730;BME280;58315;53.336;55.932;2023-04-07T07:01:04;100384.66;;;9.73;48.51
70730;BME280;58315;53.336;55.932;2023-04-07T07:03:31;100390.97;;;9.71;48.87
70730;BME280;58315;53.336;55.932;2023-04-07T07:05:58;100390.63;;;9.75;48.85
70730;BME280;58315;53.336;55.932;2023-04-07T07:08:25;100393.63;;;9.95;48.76
70730;BME280;58315;53.336;55.932;2023-04-07T07:10:52;100393.13;;;10.01;48.47
70730;BME280;58315;53.336;55.932;2023-04-07T07:13:21;100390.84;;;9.96;46.22
70730;BME280;58315;53.336;55.932;2023-04-07T07:15:48;100400.63;;;9.83;46.40
70730;BME280;58315;53.336;55.932;2023-04-07T07:18:15;100402.38;;;9.71;46.96
70730;BME280;58315;53.336;55.932;2023-04-07T07:20:41;100407.56;;;9.73;47.34
70730;BME280;58315;53.336;55.932;2023-04-07T07:23:08;100407.31;;;9.76;46.67
70730;BME280;58315;53.336;55.932;2023-04-07T07:25:34;100409.94;;;9.76;47.86
70730;BME280;58315;53.336;55.932;2023-04-07T07:28:00;100413.81;;;9.83;47.35
70730;BME280;58315;53.336;55.932;2023-04-07T07:30:26;100417.25;;;9.96;47.12
70730;BME280;58315;53.336;55.932;2023-04-07T07:32:52;100423.38;;;9.97;45.76
70730;BME280;58315;53.336;55.932;2023-04-07T07:35:19;100419.91;;;10.07;46.16
70730;BME280;58315;53.336;55.932;2023-04-07T07:37:45;100429.81;;;10.17;46.55
70730;BME280;58315;53.336;55.932;2023-04-07T07:40:12;100427.03;;;10.42;46.17
70730;BME280;58315;53.336;55.932;2023-04-07T07:42:38;100440.09;;;10.32;44.78
70730;BME280;58315;53.336;55.932;2023-04-07T07:45:05;100438.50;;;10.30;45.50
70730;BME280;58315;53.336;55.932;2023-04-07T07:47:31;100439.25;;;10.32;45.13
70730;BME280;58315;53.336;55.932;2023-04-07T07:49:57;100447.28;;;10.06;43.82
70730;BME280;58315;53.336;55.932;2023-04-07T07:52:24;100451.84;;;10.04;44.18
70730;BME280;58315;53.336;55.932;2023-04-07T07:54:50;100456.22;;;10.17;43.60
70730;BME280;58315;53.336;55.932;2023-04-07T07:57:16;100454.50;;;10.28;43.43
70730;BME280;58315;53.336;55.932;2023-04-07T07:59:42;100454.75;;;10.36;43.48
70730;BME280;58315;53.336;55.932;2023-04-07T08:02:09;100465.97;;;10.62;43.68
70730;BME280;58315;53.336;55.932;2023-04-07T08:04:36;100467.31;;;10.68;41.36
70730;BME280;58315;53.336;55.932;2023-04-07T08:07:03;100464.94;;;10.41;41.38
70730;BME280;58315;53.336;55.932;2023-04-07T08:09:29;100475.25;;;10.33;41.37
70730;BME280;58315;53.336;55.932;2023-04-07T08:11:57;100469.69;;;10.25;40.97
70730;BME280;58315;53.336;55.932;2023-04-07T08:14:23;100477.00;;;10.21;41.21
70730;BME280;58315;53.336;55.932;2023-04-07T08:16:50;100483.63;;;10.27;41.88
70730;BME280;58315;53.336;55.932;2023-04-07T08:19:16;100473.72;;;10.42;41.63
70730;BME280;58315;53.336;55.932;2023-04-07T08:21:42;100464.28;;;10.50;41.77
70730;BME280;58315;53.336;55.932;2023-04-07T08:24:08;100470.19;;;10.65;41.15
70730;BME280;58315;53.336;55.932;2023-04-07T08:26:34;100470.56;;;10.72;40.88
70730;BME280;58315;53.336;55.932;2023-04-07T08:29:00;100471.75;;;10.68;40.83
70730;BME280;58315;53.336;55.932;2023-04-07T08:31:27;100473.91;;;10.62;40.86
70730;BME280;58315;53.336;55.932;2023-04-07T08:33:53;100491.69;;;10.60;39.94
70730;BME280;58315;53.336;55.932;2023-04-07T08:36:23;100484.69;;;10.59;40.25
70730;BME280;58315;53.336;55.932;2023-04-07T08:38:49;100485.94;;;10.78;40.28
70730;BME280;58315;53.336;55.932;2023-04-07T08:41:38;100486.69;;;11.14;39.69
70730;BME280;58315;53.336;55.932;2023-04-07T08:44:06;100483.81;;;11.17;39.41
70730;BME280;58315;53.336;55.932;2023-04-07T08:46:33;100484.53;;;11.52;40.18
70730;BME280;58315;53.336;55.932;2023-04-07T08:49:00;100489.28;;;11.70;39.27
70730;BME280;58315;53.336;55.932;2023-04-07T08:51:30;100488.41;;;11.80;39.26
70730;BME280;58315;53.336;55.932;2023-04-07T08:54:04;100490.81;;;11.95;39.13
70730;BME280;58315;53.336;55.932;2023-04-07T08:56:38;100492.13;;;12.00;38.86
70730;BME280;58315;53.336;55.932;2023-04-07T08:59:13;100498.31;;;12.22;38.56
70730;BME280;58315;53.336;55.932;2023-04-07T09:01:39;100500.25;;;12.20;37.61
70730;BME280;58315;53.336;55.932;2023-04-07T09:04:07;100500.50;;;12.17;37.37
70730;BME280;58315;53.336;55.932;2023-04-07T09:06:34;100496.16;;;12.16;37.39
70730;BME280;58315;53.336;55.932;2023-04-07T09:09:01;100506.63;;;12.17;36.26
70730;BME280;58315;53.336;55.932;2023-04-07T09:11:29;100502.53;;;11.92;36.01
70730;BME280;58315;53.336;55.932;2023-04-07T09:13:55;100507.91;;;11.79;36.75
70730;BME280;58315;53.336;55.932;2023-04-07T09:16:22;100501.53;;;11.82;36.78
70730;BME280;58315;53.336;55.932;2023-04-07T09:18:52;100508.22;;;12.09;36.68
70730;BME280;58315;53.336;55.932;2023-04-07T09:21:18;100509.84;;;12.00;36.93
70730;BME280;58315;53.336;55.932;2023-04-07T09:23:44;100516.19;;;12.09;36.63
70730;BME280;58315;53.336;55.932;2023-04-07T09:26:26;100511.66;;;11.88;36.25
70730;BME280;58315;53.336;55.932;2023-04-07T09:28:59;100520.72;;;11.52;37.07
70730;BME280;58315;53.336;55.932;2023-04-07T09:31:47;100520.22;;;11.58;37.36
70730;BME280;58315;53.336;55.932;2023-04-07T09:36:55;100522.06;;;11.35;38.59
70730;BME280;58315;53.336;55.932;2023-04-07T09:39:22;100526.16;;;11.28;36.69
70730;BME280;58315;53.336;55.932;2023-04-07T09:41:48;100532.63;;;11.46;36.99
70730;BME280;58315;53.336;55.932;2023-04-07T09:44:14;100539.00;;;11.44;35.98
70730;BME280;58315;53.336;55.932;2023-04-07T09:46:53;100534.81;;;11.41;35.92
70730;BME280;58315;53.336;55.932;2023-04-07T09:49:20;100534.28;;;10.91;36.31
70730;BME280;58315;53.336;55.932;2023-04-07T09:51:55;100537.00;;;10.78;36.23
70730;BME280;58315;53.336;55.932;2023-04-07T09:54:32;100534.84;;;10.72;36.40
70730;BME280;58315;53.336;55.932;2023-04-07T09:57:04;100543.06;;;10.56;36.59
70730;BME280;58315;53.336;55.932;2023-04-07T09:59:31;100546.22;;;10.61;36.40
70730;BME280;58315;53.336;55.932;2023-04-07T10:01:58;100545.13;;;10.29;36.43
70730;BME280;58315;53.336;55.932;2023-04-07T10:04:26;100537.44;;;10.26;37.00
70730;BME280;58315;53.336;55.932;2023-04-07T10:06:53;100561.22;;;10.26;36.93
70730;BME280;58315;53.336;55.932;2023-04-07T10:09:22;100553.41;;;10.11;36.41
70730;BME280;58315;53.336;55.932;2023-04-07T10:11:50;100556.09;;;10.23;36.51
70730;BME280;58315;53.336;55.932;2023-04-07T10:14:19;100552.28;;;10.40;36.66
70730;BME280;58315;53.336;55.932;2023-04-07T10:16:46;100561.53;;;10.45;36.03
70730;BME280;58315;53.336;55.932;2023-04-07T10:19:13;100554.44;;;10.22;36.18
70730;BME280;58315;53.336;55.932;2023-04-07T10:21:41;100570.81;;;10.27;36.23
70730;BME280;58315;53.336;55.932;2023-04-07T10:26:58;100572.53;;;10.15;35.84
70730;BME280;58315;53.336;55.932;2023-04-07T10:29:28;100575.16;;;10.15;35.69
70730;BME280;58315;53.336;55.932;2023-04-07T10:31:58;100576.16;;;10.01;35.71
70730;BME280;58315;53.336;55.932;2023-04-07T10:37:16;100583.72;;;9.82;36.15
70730;BME280;58315;53.336;55.932;2023-04-07T10:39:49;100588.63;;;9.99;35.79
70730;BME280;58315;53.336;55.932;2023-04-07T10:45:04;100580.94;;;9.96;35.71
70730;BME280;58315;53.336;55.932;2023-04-07T10:47:31;100609.50;;;10.15;35.25
70730;BME280;58315;53.336;55.932;2023-04-07T10:52:44;100591.97;;;10.14;35.81
70730;BME280;58315;53.336;55.932;2023-04-07T10:55:30;100591.38;;;10.34;35.89
70730;BME280;58315;53.336;55.932;2023-04-07T11:03:23;100597.03;;;9.68;36.06
70730;BME280;58315;53.336;55.932;2023-04-07T11:05:49;100590.47;;;9.86;36.95
70730;BME280;58315;53.336;55.932;2023-04-07T11:08:45;100598.22;;;10.13;35.18
70730;BME280;58315;53.336;55.932;2023-04-07T11:11:13;100609.84;;;9.98;35.61
70730;BME280;58315;53.336;55.932;2023-04-07T11:13:43;100602.41;;;10.15;35.59
70730;BME280;58315;53.336;55.932;2023-04-07T11:16:09;100603.81;;;10.45;35.84
70730;BME280;58315;53.336;55.932;2023-04-07T11:18:36;100603.56;;;10.72;35.27
70730;BME280;58315;53.336;55.932;2023-04-07T11:21:03;100606.75;;;10.89;35.32
70730;BME280;58315;53.336;55.932;2023-04-07T11:23:41;100613.22;;;10.84;34.89
70730;BME280;58315;53.336;55.932;2023-04-07T11:26:09;100598.69;;;10.55;35.16
70730;BME280;58315;53.336;55.932;2023-04-07T11:28:47;100603.97;;;10.55;35.27
70730;BME280;58315;53.336;55.932;2023-04-07T11:31:26;100604.19;;;10.52;35.57
70730;BME280;58315;53.336;55.932;2023-04-07T11:33:54;100613.25;;;10.60;35.52
70730;BME280;58315;53.336;55.932;2023-04-07T11:36:31;100609.66;;;10.61;35.81
70730;BME280;58315;53.336;55.932;2023-04-07T11:38:58;100619.72;;;10.56;36.19
70730;BME280;58315;53.336;55.932;2023-04-07T11:41:26;100624.94;;;10.69;35.59
70730;BME280;58315;53.336;55.932;2023-04-07T11:44:10;100622.88;;;10.61;34.85
70730;BME280;58315;53.336;55.932;2023-04-07T11:46:58;100621.47;;;10.45;34.91
70730;BME280;58315;53.336;55.932;2023-04-07T11:49:25;100624.25;;;10.30;34.94
70730;BME280;58315;53.336;55.932;2023-04-07T11:52:04;100621.94;;;10.38;35.22
70730;BME280;58315;53.336;55.932;2023-04-07T11:54:45;100629.22;;;10.35;35.35
70730;BME280;58315;53.336;55.932;2023-04-07T11:57:24;100630.69;;;10.39;35.67
70730;BME280;58315;53.336;55.932;2023-04-07T12:00:07;100628.09;;;10.50;35.34
70730;BME280;58315;53.336;55.932;2023-04-07T12:02:36;100646.19;;;10.44;35.13
70730;BME280;58315;53.336;55.932;2023-04-07T12:05:03;100643.06;;;10.38;34.96
70730;BME280;58315;53.336;55.932;2023-04-07T12:07:30;100638.41;;;10.42;34.61
70730;BME280;58315;53.336;55.932;2023-04-07T12:09:56;100643.44;;;10.45;34.94
70730;BME280;58315;53.336;55.932;2023-04-07T12:12:27;100647.03;;;10.44;34.85
70730;BME280;58315;53.336;55.932;2023-04-07T12:14:54;100641.13;;;10.41;35.58
70730;BME280;58315;53.336;55.932;2023-04-07T12:17:21;100635.44;;;10.34;35.12
70730;BME280;58315;53.336;55.932;2023-04-07T12:19:47;100640.84;;;10.32;34.92
70730;BME280;58315;53.336;55.932;2023-04-07T12:22:13;100656.16;;;10.40;35.04
70730;BME280;58315;53.336;55.932;2023-04-07T12:24:39;100639.81;;;10.35;35.15
70730;BME280;58315;53.336;55.932;2023-04-07T12:27:05;100652.22;;;10.46;35.02
70730;BME280;58315;53.336;55.932;2023-04-07T12:29:33;100655.09;;;10.43;34.88
70730;BME280;58315;53.336;55.932;2023-04-07T12:31:59;100656.09;;;10.29;35.09
70730;BME280;58315;53.336;55.932;2023-04-07T12:34:25;100660.97;;;10.09;35.23
70730;BME280;58315;53.336;55.932;2023-04-07T12:36:52;100653.94;;;10.34;35.63
70730;BME280;58315;53.336;55.932;2023-04-07T12:39:18;100658.72;;;10.29;34.96
70730;BME280;58315;53.336;55.932;2023-04-07T12:41:44;100663.31;;;10.38;35.38
70730;BME280;58315;53.336;55.932;2023-04-07T12:44:12;100667.91;;;10.60;35.47
70730;BME280;58315;53.336;55.932;2023-04-07T12:46:38;100668.13;;;10.81;35.16
70730;BME280;58315;53.336;55.932;2023-04-07T12:49:04;100670.59;;;10.95;34.28
70730;BME280;58315;53.336;55.932;2023-04-07T12:51:30;100672.75;;;10.90;34.15
70730;BME280;58315;53.336;55.932;2023-04-07T12:53:58;100671.28;;;10.86;33.28
70730;BME280;58315;53.336;55.932;2023-04-07T12:56:25;100678.78;;;10.68;33.14
70730;BME280;58315;53.336;55.932;2023-04-07T12:58:53;100669.25;;;10.66;33.68
70730;BME280;58315;53.336;55.932;2023-04-07T13:01:22;100683.47;;;10.52;33.51
70730;BME280;58315;53.336;55.932;2023-04-07T13:03:48;100676.31;;;10.41;33.53
70730;BME280;58315;53.336;55.932;2023-04-07T13:06:14;100686.09;;;10.28;33.00
70730;BME280;58315;53.336;55.932;2023-04-07T13:08:42;100684.31;;;10.28;32.98
70730;BME280;58315;53.336;55.932;2023-04-07T13:11:08;100684.06;;;10.19;32.62
70730;BME280;58315;53.336;55.932;2023-04-07T13:13:34;100687.34;;;10.22;32.52
70730;BME280;58315;53.336;55.932;2023-04-07T13:16:00;100701.47;;;10.47;32.39
70730;BME280;58315;53.336;55.932;2023-04-07T13:18:26;100689.81;;;10.49;32.77